Time;durP1;ratioP1;P1;durP2;ratioP2;P2;SDS_P1;SDS_P2;PMS_P1;PMS_P2;Temp;Humidity;BMP_temperature;BMP_pressure;BME280_temperature;BME280_humidity;BME280_pressure;Samples;Min_cycle;Max_cycle;Signal;HPM_P1;HPM_P2
2022/04/24 00:01:15;;;;;;;166.50;89.60;;;;;;;4.67;67.65;97730.61;434253;1266;97922;-41
2022/04/24 00:11:23;;;;;;;145.70;83.70;;;;;;;4.54;68.21;97718.15;434304;1267;97896;-42
2022/04/24 00:21:31;;;;;;;144.20;76.80;;;;;;;4.38;68.53;97715.60;434216;1268;109669;-44
2022/04/24 00:31:38;;;;;;;122.00;67.30;;;;;;;4.42;68.94;97703.29;434199;1267;107554;-41
2022/04/24 00:41:46;;;;;;;113.20;65.70;;;;;;;4.57;69.15;97694.23;434154;1266;96989;-42
2022/04/24 00:51:54;;;;;;;123.80;70.10;;;;;;;4.62;69.13;97687.98;434259;1268;109800;-43
2022/04/24 01:02:03;;;;;;;118.90;69.90;;;;;;;4.53;69.34;97684.52;434191;1266;108738;-41
2022/04/24 01:12:11;;;;;;;178.80;95.70;;;;;;;4.64;69.74;97676.89;434200;1266;97930;-45
2022/04/24 01:22:18;;;;;;;183.00;95.70;;;;;;;4.43;69.49;97674.36;434267;1268;108801;-41
2022/04/24 01:32:25;;;;;;;176.10;88.80;;;;;;;4.21;69.94;97667.59;435384;1258;97942;-41
2022/04/24 01:42:33;;;;;;;137.60;77.70;;;;;;;4.22;70.05;97666.55;434921;1265;97880;-41
2022/04/24 01:52:40;;;;;;;114.70;67.30;;;;;;;4.06;69.79;97663.15;434777;1265;108891;-42
2022/04/24 02:12:55;;;;;;;123.80;69.60;;;;;;;4.10;70.67;97655.05;434981;1265;111026;-41
2022/04/24 02:23:03;;;;;;;151.50;79.70;;;;;;;4.15;70.97;97632.91;434764;1264;108687;-41
2022/04/24 02:33:10;;;;;;;158.80;82.80;;;;;;;3.93;70.70;97616.29;434699;1265;97905;-43
2022/04/24 02:43:18;;;;;;;194.60;95.70;;;;;;;3.60;70.63;97611.18;434692;1265;110927;-43
2022/04/24 02:53:25;;;;;;;135.60;76.10;;;;;;;3.24;70.81;97604.27;434833;1265;109003;-41
2022/04/24 03:03:32;;;;;;;122.50;71.40;;;;;;;3.17;71.02;97597.52;434907;1265;97923;-41
2022/04/24 03:13:40;;;;;;;131.20;70.50;;;;;;;3.07;71.00;97600.63;434970;1265;110048;-43
2022/04/24 03:23:47;;;;;;;178.10;94.00;;;;;;;2.82;70.95;97591.94;434803;1265;108827;-42
2022/04/24 03:33:55;;;;;;;179.00;94.40;;;;;;;2.67;71.29;97591.03;434950;1265;97989;-43
2022/04/24 03:44:02;;;;;;;179.30;95.90;;;;;;;2.57;71.58;97594.08;434895;1264;110694;-41
2022/04/24 03:54:09;;;;;;;152.50;77.60;;;;;;;2.49;71.32;97597.08;434773;1264;108728;-45
2022/04/24 04:04:17;;;;;;;130.70;74.60;;;;;;;2.64;71.45;97583.95;435000;1265;97596;-41
2022/04/24 04:14:24;;;;;;;139.50;77.60;;;;;;;2.99;71.62;97591.69;434872;1265;111494;-45
2022/04/24 04:24:31;;;;;;;175.10;92.40;;;;;;;3.57;71.89;97583.27;434794;1265;108874;-44
2022/04/24 04:34:38;;;;;;;173.90;93.00;;;;;;;4.67;71.81;97587.24;435132;1264;96643;-46
2022/04/24 04:44:46;;;;;;;159.30;90.00;;;;;;;5.50;70.83;97585.73;434292;1267;111082;-41
2022/04/24 04:54:53;;;;;;;130.00;68.30;;;;;;;6.47;71.13;97577.86;434889;1265;108783;-42
2022/04/24 05:05:01;;;;;;;104.10;61.00;;;;;;;8.48;70.90;97580.13;434825;1264;108463;-41
2022/04/24 05:15:09;;;;;;;97.30;55.40;;;;;;;8.73;69.55;97595.64;434782;1265;96910;-44
2022/04/24 05:25:16;;;;;;;98.10;62.50;;;;;;;8.41;69.59;97602.61;434886;1264;111176;-46
2022/04/24 05:35:24;;;;;;;74.80;48.60;;;;;;;8.45;69.46;97593.88;434658;1265;108919;-44
2022/04/24 05:45:34;;;;;;;100.00;61.70;;;;;;;8.47;69.44;97613.02;434878;1263;97758;-44
2022/04/24 05:55:42;;;;;;;66.10;41.90;;;;;;;8.58;69.49;97615.41;434965;1264;97914;-43
2022/04/24 06:05:49;;;;;;;55.60;37.90;;;;;;;8.86;69.34;97609.27;434852;1263;109076;-44
2022/04/24 06:15:57;;;;;;;33.70;24.80;;;;;;;8.99;69.27;97602.08;434452;1264;574960;-43
2022/04/24 06:26:05;;;;;;;32.20;22.50;;;;;;;9.14;68.97;97588.53;434922;1265;112454;-45
2022/04/24 06:36:12;;;;;;;26.20;22.20;;;;;;;9.41;68.46;97575.41;434761;1265;108801;-41
2022/04/24 06:56:26;;;;;;;26.90;21.30;;;;;;;10.02;67.08;97566.80;434945;1264;111099;-42
2022/04/24 07:06:33;;;;;;;27.60;20.90;;;;;;;10.12;66.21;97547.45;435057;1264;108963;-44
2022/04/24 07:16:41;;;;;;;20.50;16.70;;;;;;;10.42;65.65;97529.70;434932;1264;97910;-42
2022/04/24 07:26:48;;;;;;;20.10;15.90;;;;;;;10.79;64.37;97525.52;435034;1265;108697;-42
2022/04/24 07:36:55;;;;;;;17.10;14.30;;;;;;;10.95;63.56;97526.70;434892;1265;97887;-47
2022/04/24 07:47:02;;;;;;;18.00;14.10;;;;;;;11.03;62.90;97520.06;435034;1263;111203;-46
2022/04/24 07:57:09;;;;;;;19.30;15.70;;;;;;;11.03;61.63;97511.55;434837;1264;108758;-42
2022/04/24 08:07:17;;;;;;;22.30;14.10;;;;;;;11.29;61.21;97502.41;435091;1264;98277;-42
2022/04/24 08:17:23;;;;;;;19.60;15.10;;;;;;;12.10;60.45;97499.27;435057;1265;108703;-41
2022/04/24 08:27:31;;;;;;;16.30;13.40;;;;;;;12.39;59.36;97498.39;434805;1264;96650;-43
2022/04/24 08:37:39;;;;;;;20.20;15.30;;;;;;;12.76;57.80;97497.30;434964;1265;111238;-46
2022/04/24 08:57:53;;;;;;;23.20;17.80;;;;;;;13.27;56.60;97494.35;434889;1264;97464;-44
2022/04/24 09:08:14;;;;;;;16.90;13.40;;;;;;;13.26;55.51;97495.70;435014;1263;108996;-43
2022/04/24 09:18:39;;;;;;;15.60;11.80;;;;;;;13.09;54.52;97484.34;434840;1264;108934;-42
2022/04/24 09:28:47;;;;;;;19.10;13.20;;;;;;;12.88;54.54;97481.73;435107;1263;97485;-43
2022/04/24 09:38:54;;;;;;;19.20;15.00;;;;;;;13.22;54.61;97474.67;434941;1264;111067;-41
2022/04/24 09:49:02;;;;;;;20.80;15.30;;;;;;;13.39;54.52;97463.48;434789;1264;108698;-41
2022/04/24 09:59:09;;;;;;;20.40;15.20;;;;;;;13.17;55.07;97454.57;435025;1264;97923;-44
2022/04/24 10:09:18;;;;;;;17.60;14.00;;;;;;;12.70;55.69;97447.20;434989;1263;111074;-45
2022/04/24 10:19:24;;;;;;;16.60;13.00;;;;;;;12.45;56.45;97437.49;434991;1263;106741;-43
2022/04/24 10:29:31;;;;;;;17.80;13.70;;;;;;;12.28;56.97;97440.13;434934;1263;98160;-46
2022/04/24 10:39:39;;;;;;;17.20;12.80;;;;;;;12.10;57.27;97431.23;435083;1264;110590;-42
2022/04/24 10:49:47;;;;;;;17.00;12.30;;;;;;;12.12;57.55;97404.89;435001;1262;108618;-41
2022/04/24 10:59:55;;;;;;;17.70;12.20;;;;;;;12.26;57.73;97386.98;434974;1265;97981;-42
2022/04/24 11:10:04;;;;;;;12.90;11.30;;;;;;;12.51;57.47;97386.50;435080;1264;111003;-45
2022/04/24 11:20:14;;;;;;;19.40;11.90;;;;;;;12.47;57.34;97381.59;434950;1265;107826;-45
2022/04/24 11:30:22;;;;;;;16.50;10.80;;;;;;;12.44;57.72;97375.09;435075;1263;97892;-43
2022/04/24 11:40:33;;;;;;;18.40;12.10;;;;;;;12.41;57.94;97366.58;434885;1264;111214;-43
2022/04/24 11:50:56;;;;;;;47.90;24.00;;;;;;;12.38;58.46;97358.27;434923;1264;109637;-45
2022/04/24 12:01:24;;;;;;;17.00;13.40;;;;;;;12.10;59.78;97356.19;435002;1263;97868;-46
2022/04/24 12:11:35;;;;;;;19.40;13.70;;;;;;;11.74;61.24;97350.96;434810;1264;111086;-44
2022/04/24 12:21:49;;;;;;;19.50;15.60;;;;;;;11.60;62.77;97353.31;434923;1263;107605;-43
2022/04/24 12:32:11;;;;;;;26.90;16.50;;;;;;;11.41;63.55;97353.54;435049;1264;97277;-43
2022/04/24 12:42:19;;;;;;;24.10;16.80;;;;;;;11.23;64.55;97353.70;434833;1265;108763;-44
2022/04/24 12:52:27;;;;;;;20.30;15.90;;;;;;;11.12;65.33;97346.80;434893;1265;96689;-42
2022/04/24 13:02:34;;;;;;;24.60;17.80;;;;;;;11.07;66.50;97332.16;434961;1262;111116;-43
2022/04/24 13:12:42;;;;;;;26.50;19.60;;;;;;;11.08;67.05;97313.89;434939;1265;108601;-46
2022/04/24 13:22:49;;;;;;;25.00;17.80;;;;;;;11.08;68.07;97288.08;434908;1264;96648;-41
2022/04/24 13:32:56;;;;;;;23.10;16.30;;;;;;;11.68;69.49;97276.09;434746;1265;109916;-42
2022/04/24 13:53:08;;;;;;;16.90;13.20;;;;;;;11.92;68.48;97267.19;434805;1264;97909;-45
2022/04/24 14:03:15;;;;;;;19.70;15.80;;;;;;;11.65;68.83;97238.55;434819;1264;108782;-45
2022/04/24 14:13:21;;;;;;;24.10;16.70;;;;;;;11.69;69.13;97222.77;434867;1264;97894;-43
2022/04/24 14:23:29;;;;;;;24.00;18.40;;;;;;;11.85;69.45;97211.34;434738;1265;110728;-44
2022/04/24 14:33:36;;;;;;;25.40;16.80;;;;;;;11.90;69.71;97212.16;434894;1263;110838;-41
2022/04/24 14:43:48;;;;;;;23.20;16.90;;;;;;;11.96;69.73;97205.02;434794;1265;96697;-43
2022/04/24 15:04:19;;;;;;;28.30;19.20;;;;;;;11.43;71.86;97187.31;434819;1264;96643;-43
2022/04/24 15:14:26;;;;;;;28.70;21.00;;;;;;;11.21;72.00;97174.84;434912;1265;110764;-45
2022/04/24 15:24:32;;;;;;;29.40;20.40;;;;;;;11.16;72.39;97170.25;434935;1264;107917;-41
2022/04/24 16:05:17;;;;;;;28.60;19.50;;;;;;;10.65;74.54;97139.87;434770;1264;111044;-43
2022/04/24 16:15:24;;;;;;;24.10;18.40;;;;;;;10.67;74.92;97132.75;434859;1263;109075;-42
2022/04/24 16:25:30;;;;;;;22.20;16.90;;;;;;;10.67;75.22;97140.98;434995;1265;97903;-41
2022/04/24 16:35:38;;;;;;;27.90;18.70;;;;;;;10.73;75.01;97161.82;434615;1265;108870;-41
2022/04/24 16:45:45;;;;;;;22.30;16.60;;;;;;;10.70;75.19;97145.17;434914;1264;97904;-44
2022/04/24 17:06:16;;;;;;;24.50;17.30;;;;;;;10.43;75.67;97109.77;434872;1265;108643;-40
2022/04/24 17:16:34;;;;;;;25.90;18.80;;;;;;;10.24;76.54;97151.07;434858;1264;97476;-41
2022/04/24 17:26:40;;;;;;;33.00;20.00;;;;;;;10.13;77.22;97178.39;434863;1264;108360;-42
2022/04/24 17:36:48;;;;;;;56.20;33.60;;;;;;;10.15;77.18;97171.69;434732;1263;97902;-43
2022/04/24 17:46:55;;;;;;;38.60;26.00;;;;;;;10.12;77.17;97178.13;434912;1264;111234;-45
2022/04/24 17:57:04;;;;;;;24.50;17.70;;;;;;;10.13;77.42;97155.73;434691;1264;108960;-44
2022/04/24 18:07:13;;;;;;;21.30;14.50;;;;;;;10.10;77.36;97167.56;435069;1265;97468;-43
2022/04/24 18:17:21;;;;;;;25.60;17.00;;;;;;;10.11;77.53;97194.55;432482;1264;3496372;-43
2022/04/24 18:27:29;;;;;;;35.40;23.30;;;;;;;9.99;77.43;97190.79;434810;1263;97699;-41
2022/04/24 18:37:36;;;;;;;29.80;22.40;;;;;;;9.90;77.77;97200.57;434760;1265;111076;-44
2022/04/24 18:47:44;;;;;;;29.50;21.70;;;;;;;9.93;77.87;97180.84;434780;1263;108832;-42
2022/04/24 18:57:51;;;;;;;30.50;20.30;;;;;;;9.92;78.03;97161.41;435089;1264;97464;-42
2022/04/24 19:08:03;;;;;;;29.60;20.10;;;;;;;9.99;78.16;97159.21;434902;1264;108412;-43
2022/04/24 19:18:10;;;;;;;31.50;21.40;;;;;;;10.01;78.26;97182.14;434968;1265;99260;-41
2022/04/24 19:28:17;;;;;;;42.30;28.80;;;;;;;9.94;78.08;97191.20;434901;1265;112400;-41
2022/04/24 19:38:24;;;;;;;43.60;28.60;;;;;;;9.72;78.32;97193.45;434922;1265;108360;-45
2022/04/24 20:09:04;;;;;;;94.90;55.80;;;;;;;9.21;78.34;97202.76;434816;1263;99241;-45
2022/04/24 20:19:12;;;;;;;92.40;60.50;;;;;;;9.18;78.46;97205.91;434934;1265;112374;-42
2022/04/24 20:29:19;;;;;;;94.90;56.80;;;;;;;9.09;78.71;97196.01;434971;1265;108845;-40
2022/04/24 20:39:38;;;;;;;88.80;53.00;;;;;;;9.04;78.88;97188.33;434963;1263;99259;-43
2022/04/24 20:49:46;;;;;;;73.00;46.90;;;;;;;8.93;79.11;97194.05;434913;1265;108819;-41
2022/04/24 20:59:53;;;;;;;75.10;46.30;;;;;;;8.86;79.53;97206.82;434667;1265;99272;-40
2022/04/24 21:10:04;;;;;;;74.70;44.70;;;;;;;8.77;79.98;97221.83;434766;1264;112323;-42
2022/04/24 21:20:11;;;;;;;55.30;37.10;;;;;;;8.71;80.30;97234.48;434945;1265;106651;-39
2022/04/24 21:30:18;;;;;;;47.40;30.70;;;;;;;8.63;80.35;97237.94;434915;1264;99337;-45
2022/04/24 21:40:26;;;;;;;47.50;28.70;;;;;;;8.47;80.61;97236.39;434985;1264;109231;-43
2022/04/24 21:50:32;;;;;;;44.80;26.40;;;;;;;8.35;80.78;97244.86;434958;1265;99270;-41
2022/04/24 22:00:38;;;;;;;44.40;27.20;;;;;;;8.20;80.82;97244.46;434870;1265;112427;-41
2022/04/24 22:10:45;;;;;;;45.70;25.80;;;;;;;8.07;80.89;97252.02;434819;1265;108749;-42
2022/04/24 22:24:24;;;;;;;47.70;26.70;;;;;;;7.93;81.07;97251.86;434744;1265;99229;-43
2022/04/24 22:31:20;;;;;;;46.10;28.30;;;;;;;7.82;81.07;97257.11;434591;1265;109065;-44
2022/04/24 22:41:28;;;;;;;39.20;27.30;;;;;;;7.71;81.23;97258.39;434802;1265;99283;-44
2022/04/24 22:51:34;;;;;;;42.50;28.50;;;;;;;7.62;81.33;97255.13;434856;1265;112106;-42
2022/04/24 23:01:41;;;;;;;42.60;28.50;;;;;;;7.55;81.35;97258.49;434668;1263;108398;-43
2022/04/24 23:21:57;;;;;;;45.80;32.10;;;;;;;7.47;81.63;97260.23;434967;1265;108779;-40
2022/04/24 23:32:04;;;;;;;;;;;;;;;7.42;81.55;97264.80;434911;1265;99270;-45
2022/04/24 23:42:09;;;;;;;52.40;32.30;;;;;;;7.28;81.70;97271.29;434893;1264;112422;-45
2022/04/24 23:52:17;;;;;;;51.50;34.00;;;;;;;7.13;81.59;97269.70;434884;1264;108793;-42
